Time;durP1;ratioP1;P1;durP2;ratioP2;P2;SDS_P1;SDS_P2;PMS_P1;PMS_P2;Temp;Humidity;BMP_temperature;BMP_pressure;BME280_temperature;BME280_humidity;BME280_pressure;Samples;Min_cycle;Max_cycle;Signal;HPM_P1;HPM_P2
2022/04/15 00:04:57;;;;;;;8.43;6.10;;;15.70;79.70;;;;;;10250207;28;20337;-80
2022/04/15 00:09:59;;;;;;;16.13;11.17;;;15.70;79.90;;;;;;10230716;28;20328;-80
2022/04/15 00:15:02;;;;;;;12.67;7.10;;;14.80;93.60;;;;;;10237034;28;20296;-81
2022/04/15 00:20:05;;;;;;;18.60;12.23;;;13.50;97.70;;;;;;10246740;28;21084;-81
2022/04/15 00:25:10;;;;;;;25.00;13.50;;;12.50;99.90;;;;;;10232374;28;20296;-80
2022/04/15 00:30:13;;;;;;;15.30;10.73;;;12.90;99.90;;;;;;10231490;28;20275;-80
2022/04/15 00:35:15;;;;;;;21.87;13.53;;;13.90;98.10;;;;;;10245017;28;20275;-80
2022/04/15 00:40:18;;;;;;;22.43;14.80;;;12.80;99.90;;;;;;10245319;28;20365;-80
2022/04/15 00:45:20;;;;;;;22.53;13.80;;;11.70;99.90;;;;;;10248143;28;20233;-80
2022/04/15 00:50:29;;;;;;;21.17;14.87;;;12.50;99.90;;;;;;10245432;28;20596;-80
2022/04/15 00:55:32;;;;;;;7.57;5.50;;;11.90;99.90;;;;;;10243385;28;20305;-81
2022/04/15 01:00:36;;;;;;;15.80;10.60;;;13.50;95.20;;;;;;10240687;28;20686;-80
2022/04/15 01:05:39;;;;;;;8.40;6.30;;;;;;;;;;10214898;28;20337;-80
2022/04/15 01:10:44;;;;;;;7.30;5.17;;;;;;;;;;10243324;28;20297;-80
2022/04/15 01:15:48;;;;;;;6.00;5.17;;;;;;;;;;10245617;28;20285;-81
2022/04/15 01:20:52;;;;;;;9.40;6.13;;;;;;;;;;10244370;28;20870;-80
2022/04/15 01:25:55;;;;;;;6.13;5.20;;;;;;;;;;10225685;28;20654;-80
2022/04/15 01:30:57;;;;;;;6.17;5.50;;;16.30;99.90;;;;;;10241126;28;20317;-81
2022/04/15 01:35:59;;;;;;;7.07;5.27;;;16.30;76.80;;;;;;10241431;28;20211;-80
2022/04/15 01:41:02;;;;;;;7.93;5.80;;;16.50;76.00;;;;;;10246492;28;20320;-80
2022/04/15 01:46:04;;;;;;;5.97;5.37;;;16.40;75.90;;;;;;10244589;28;20296;-80
2022/04/15 01:51:07;;;;;;;6.60;4.93;;;16.20;76.90;;;;;;10244215;28;20364;-80
2022/04/15 01:56:09;;;;;;;14.90;9.10;;;16.40;75.80;;;;;;10247285;28;20713;-80
2022/04/15 02:01:12;;;;;;;12.63;7.33;;;15.80;81.80;;;;;;10240337;28;20306;-80
2022/04/15 02:06:15;;;;;;;6.57;5.30;;;16.00;78.40;;;;;;10254843;28;20689;-80
2022/04/15 02:11:18;;;;;;;7.73;5.90;;;16.00;76.90;;;;;;10243049;28;20297;-80
2022/04/15 02:16:20;;;;;;;21.73;13.20;;;15.90;78.50;;;;;;10230621;28;20742;-81
2022/04/15 02:21:23;;;;;;;7.37;5.47;;;15.20;86.00;;;;;;10249960;28;20253;-80
2022/04/15 02:26:26;;;;;;;20.30;12.80;;;15.00;81.80;;;;;;10249130;28;20797;-80
2022/04/15 02:31:28;;;;;;;10.93;7.93;;;13.90;95.30;;;;;;10249451;28;20301;-80
2022/04/15 02:36:31;;;;;;;8.57;6.97;;;14.60;89.90;;;;;;10237412;28;20328;-80
2022/04/15 02:41:33;;;;;;;13.57;10.13;;;14.70;86.90;;;;;;10248549;28;20255;-80
2022/04/15 02:46:36;;;;;;;7.37;5.20;;;15.20;84.50;;;;;;10248942;28;20304;-80
2022/04/15 02:51:39;;;;;;;9.77;6.13;;;15.10;82.00;;;;;;10233240;28;21593;-80
2022/04/15 02:56:41;;;;;;;9.03;6.10;;;15.20;82.00;;;;;;10238061;28;20349;-79
2022/04/15 03:01:45;;;;;;;7.70;6.37;;;15.10;81.20;;;;;;10253688;28;20381;-80
2022/04/15 03:06:48;;;;;;;6.80;5.00;;;15.30;80.30;;;;;;10225619;28;20214;-80
2022/04/15 03:11:50;;;;;;;21.57;13.80;;;15.50;79.00;;;;;;10226658;28;20221;-80
2022/04/15 03:16:53;;;;;;;8.67;6.10;;;15.30;85.30;;;;;;10247024;28;20827;-80
2022/04/15 03:21:57;;;;;;;5.23;4.73;;;15.40;79.20;;;;;;10236744;28;20722;-80
2022/04/15 03:26:59;;;;;;;6.60;5.10;;;15.90;77.20;;;;;;10235985;28;20257;-80
2022/04/15 03:32:02;;;;;;;5.67;5.07;;;16.00;77.20;;;;;;10249540;28;20305;-80
2022/04/15 03:37:05;;;;;;;6.80;5.70;;;16.30;75.50;;;;;;10246006;28;20608;-80
2022/04/15 03:42:08;;;;;;;5.37;4.87;;;16.10;78.00;;;;;;10246047;28;20237;-80
2022/04/15 03:47:10;;;;;;;11.83;8.93;;;16.30;76.10;;;;;;10245525;28;20277;-80
2022/04/15 03:52:13;;;;;;;11.93;8.77;;;15.70;82.10;;;;;;10251399;28;20238;-80
2022/04/15 03:57:15;;;;;;;7.13;5.53;;;15.00;91.10;;;;;;10229050;28;20381;-80
2022/04/15 04:02:18;;;;;;;6.77;5.53;;;14.70;85.60;;;;;;10254305;28;20641;-80
2022/04/15 04:07:20;;;;;;;5.20;4.60;;;15.10;84.40;;;;;;10277747;28;20498;-80
2022/04/15 04:12:23;;;;;;;5.33;4.83;;;15.50;79.10;;;;;;10272832;28;20217;-80
2022/04/15 04:17:25;;;;;;;4.37;3.97;;;15.80;77.80;;;;;;10291383;28;20640;-80
2022/04/15 04:22:32;;;;;;;5.47;4.97;;;16.10;76.30;;;;;;10288605;28;20269;-80
2022/04/15 04:27:36;;;;;;;7.10;5.90;;;16.10;76.00;;;;;;10314539;28;20244;-82
2022/04/15 04:32:39;;;;;;;6.50;5.17;;;16.20;76.40;;;;;;10294444;28;20254;-80
2022/04/15 04:37:42;;;;;;;5.13;4.57;;;16.30;75.40;;;;;;10252125;28;20289;-80
2022/04/15 04:42:46;;;;;;;9.83;7.73;;;16.30;75.20;;;;;;10264882;28;20622;-80
2022/04/15 04:47:48;;;;;;;10.00;7.40;;;16.10;80.80;;;;;;10293727;28;20283;-81
2022/04/15 04:52:51;;;;;;;13.27;8.87;;;15.10;85.90;;;;;;10318953;28;20276;-82
2022/04/15 04:57:54;;;;;;;10.67;8.10;;;15.10;91.80;;;;;;10310866;28;20270;-82
2022/04/15 05:02:56;;;;;;;8.60;7.17;;;15.30;90.90;;;;;;10298107;28;20264;-82
2022/04/15 05:07:59;;;;;;;8.17;6.90;;;15.00;92.60;;;;;;10265126;28;20263;-82
2022/04/15 05:13:01;;;;;;;10.20;8.23;;;14.90;91.90;;;;;;10276718;28;20237;-82
2022/04/15 05:18:05;;;;;;;8.33;6.20;;;13.80;99.30;;;;;;10284360;28;20245;-82
2022/04/15 05:23:08;;;;;;;6.93;5.40;;;14.70;93.50;;;;;;10283273;28;20289;-82
2022/04/15 05:28:10;;;;;;;4.97;4.43;;;15.10;91.50;;;;;;10279078;28;20678;-85
2022/04/15 05:33:13;;;;;;;6.70;4.83;;;15.50;90.20;;;;;;10261320;28;20789;-82
2022/04/15 05:38:17;;;;;;;5.93;4.37;;;15.80;88.60;;;;;;10280370;28;20249;-82
2022/04/15 05:43:20;;;;;;;5.97;4.53;;;15.60;89.20;;;;;;10294932;28;20261;-83
2022/04/15 05:48:22;;;;;;;4.97;4.33;;;16.10;86.60;;;;;;10292715;28;20324;-83
2022/04/15 05:53:25;;;;;;;17.63;12.87;;;16.20;86.70;;;;;;10281875;28;20239;-82
2022/04/15 05:58:28;;;;;;;15.37;11.07;;;15.90;92.40;;;;;;10292422;28;20245;-82
2022/04/15 06:03:34;;;;;;;14.73;9.77;;;16.00;91.80;;;;;;10294381;28;20260;-82
2022/04/15 06:08:36;;;;;;;17.63;12.93;;;16.10;91.50;;;;;;10280973;28;20213;-82
2022/04/15 06:13:42;;;;;;;16.47;10.67;;;15.90;92.50;;;;;;10300811;28;20683;-81
2022/04/15 06:18:44;;;;;;;10.03;8.63;;;15.60;93.20;;;;;;10302654;28;20761;-82
2022/04/15 06:24:08;;;;;;;10.70;8.17;;;15.90;92.10;;;;;;10287646;28;20753;-82
2022/04/15 06:29:11;;;;;;;19.17;12.90;;;15.90;91.60;;;;;;10302989;28;20213;-81
2022/04/15 06:34:14;;;;;;;8.80;7.90;;;16.00;91.20;;;;;;10283796;28;20217;-80
2022/04/15 06:39:16;;;;;;;8.53;7.30;;;16.20;90.40;;;;;;10284799;28;20218;-82
2022/04/15 06:44:19;;;;;;;19.10;14.17;;;16.00;90.30;;;;;;10295467;28;20261;-82
2022/04/15 06:49:21;;;;;;;18.47;13.70;;;15.90;91.90;;;;;;10304839;28;20777;-82
2022/04/15 06:54:24;;;;;;;18.23;14.20;;;15.80;91.70;;;;;;10284032;28;20214;-82
2022/04/15 06:59:26;;;;;;;9.30;6.87;;;15.50;92.80;;;;;;10294771;28;20597;-82
2022/04/15 07:04:29;;;;;;;8.00;6.67;;;16.40;88.00;;;;;;10294452;28;20253;-83
2022/04/15 07:09:32;;;;;;;7.67;5.97;;;16.50;86.80;;;;;;10293287;28;20233;-83
2022/04/15 07:14:34;;;;;;;11.33;8.97;;;16.60;84.90;;;;;;10295150;28;20282;-82
2022/04/15 07:19:37;;;;;;;7.50;5.43;;;16.20;88.50;;;;;;10292755;28;20249;-83
2022/04/15 07:24:39;;;;;;;6.10;5.50;;;15.80;88.40;;;;;;10292655;28;20666;-82
2022/04/15 07:29:42;;;;;;;6.20;5.60;;;15.20;90.50;;;;;;10276172;28;20265;-82
2022/04/15 07:34:45;;;;;;;7.53;5.67;;;15.20;90.40;;;;;;10298779;28;20638;-81
2022/04/15 07:39:47;;;;;;;10.23;7.50;;;15.60;89.30;;;;;;10296935;28;20252;-83
2022/04/15 07:44:50;;;;;;;10.70;7.60;;;14.90;91.80;;;;;;10295891;28;20321;-83
2022/04/15 07:49:52;;;;;;;13.20;10.73;;;14.80;91.80;;;;;;10268074;28;20214;-82
2022/04/15 07:54:55;;;;;;;19.67;10.33;;;15.40;96.30;;;;;;10288137;28;20213;-82
2022/04/15 07:59:58;;;;;;;12.70;10.63;;;16.20;99.90;;;;;;10264483;28;20312;-82
2022/04/15 08:05:00;;;;;;;17.27;10.30;;;17.00;99.90;;;;;;10288618;28;20265;-81
2022/04/15 08:10:03;;;;;;;13.20;10.97;;;17.50;99.90;;;;;;10289927;28;20603;-82
2022/04/15 08:15:06;;;;;;;12.90;10.17;;;;;;;;;;10269868;28;20264;-81
2022/04/15 08:20:09;;;;;;;13.50;10.13;;;18.40;99.90;;;;;;10288109;28;20307;-81
2022/04/15 08:25:12;;;;;;;11.63;9.27;;;18.40;99.90;;;;;;10328671;23;20656;-82
2022/04/15 08:30:14;;;;;;;10.23;8.23;;;18.50;99.90;;;;;;10294542;28;20679;-82
2022/04/15 08:35:17;;;;;;;10.13;8.97;;;18.60;99.90;;;;;;10326159;28;20298;-82
2022/04/15 08:40:20;;;;;;;12.33;8.77;;;18.90;99.90;;;;;;10309787;28;20275;-81
2022/04/15 08:45:25;;;;;;;10.33;8.87;;;18.90;99.90;;;;;;10326931;28;20284;-82
2022/04/15 08:50:29;;;;;;;10.30;8.90;;;18.90;99.90;;;;;;10325317;28;20295;-82
2022/04/15 08:55:32;;;;;;;12.30;8.40;;;18.50;99.90;;;;;;10307506;28;20232;-82
2022/04/15 09:00:34;;;;;;;9.80;7.77;;;18.60;99.90;;;;;;10308281;28;20225;-82
2022/04/15 09:05:37;;;;;;;9.20;7.40;;;18.80;99.90;;;;;;10305376;28;20260;-82
2022/04/15 09:10:42;;;;;;;16.30;10.67;;;18.60;99.90;;;;;;10297403;28;20306;-82
2022/04/15 09:15:44;;;;;;;17.87;11.77;;;18.00;98.40;;;;;;10317947;28;20241;-82
2022/04/15 09:20:47;;;;;;;14.70;9.73;;;15.70;99.90;;;;;;10307458;28;20276;-82
2022/04/15 09:25:52;;;;;;;8.23;7.43;;;14.50;99.90;;;;;;10291943;28;20260;-82
2022/04/15 09:30:54;;;;;;;8.13;7.10;;;16.00;99.90;;;;;;10302317;28;20728;-82
2022/04/15 09:35:57;;;;;;;10.00;8.57;;;15.20;99.90;;;;;;10268655;28;20237;-82
2022/04/15 09:40:59;;;;;;;10.83;8.00;;;14.40;99.90;;;;;;10285922;28;20245;-82
2022/04/15 09:46:10;;;;;;;8.30;7.03;;;14.00;99.90;;;;;;10268997;28;20313;-81
2022/04/15 09:51:19;;;;;;;8.10;6.90;;;15.10;99.90;;;;;;10301796;28;20233;-82
2022/04/15 09:56:23;;;;;;;7.17;6.47;;;15.20;99.90;;;;;;10291837;28;20269;-82
2022/04/15 10:01:28;;;;;;;7.67;6.80;;;14.30;99.90;;;;;;10269520;28;20259;-82
2022/04/15 10:06:31;;;;;;;8.20;7.40;;;15.70;99.90;;;;;;10285796;28;20285;-82
2022/04/15 10:11:41;;;;;;;7.27;6.40;;;13.80;99.90;;;;;;10268614;28;20871;-82
2022/04/15 10:16:43;;;;;;;9.57;7.37;;;14.60;99.90;;;;;;10269584;28;20243;-82
2022/04/15 10:21:50;;;;;;;14.47;8.40;;;15.10;99.90;;;;;;10289575;28;20251;-82
2022/04/15 10:26:59;;;;;;;12.30;8.90;;;12.70;99.90;;;;;;10299348;28;20315;-82
2022/04/15 10:32:13;;;;;;;15.73;9.47;;;11.70;99.90;;;;;;10332760;28;20228;-81
2022/04/15 10:37:17;;;;;;;8.47;7.67;;;12.80;99.90;;;;;;10330109;28;20252;-82
2022/04/15 10:42:20;;;;;;;8.70;7.77;;;12.80;99.90;;;;;;10294590;28;20237;-82
2022/04/15 10:47:22;;;;;;;15.60;8.93;;;13.80;99.90;;;;;;10310198;28;20714;-82
2022/04/15 10:52:27;;;;;;;11.37;8.83;;;12.40;99.90;;;;;;10314239;28;20209;-81
2022/04/15 10:57:35;;;;;;;9.50;6.93;;;13.10;99.90;;;;;;10279699;28;20279;-82
2022/04/15 11:02:51;;;;;;;6.40;5.80;;;16.10;99.90;;;;;;10282262;28;20217;-81
2022/04/15 11:08:03;;;;;;;9.87;8.83;;;16.80;99.90;;;;;;10302057;28;20268;-83
2022/04/15 11:13:10;;;;;;;6.67;6.07;;;16.60;99.90;;;;;;10330687;28;20241;-81
2022/04/15 11:18:14;;;;;;;6.13;5.30;;;17.20;99.90;;;;;;10330942;28;20272;-81
2022/04/15 11:23:17;;;;;;;9.60;8.23;;;17.70;99.90;;;;;;10315836;28;20241;-81
2022/04/15 11:28:19;;;;;;;7.13;6.33;;;17.30;99.90;;;;;;10278633;28;20233;-81
2022/04/15 11:33:22;;;;;;;6.93;6.27;;;17.60;99.90;;;;;;10300493;28;20237;-81
2022/04/15 11:38:24;;;;;;;8.17;7.30;;;17.60;99.90;;;;;;10297472;28;20689;-81
2022/04/15 11:43:27;;;;;;;9.13;6.60;;;14.70;99.90;;;;;;10306661;28;20237;-81
2022/04/15 11:48:29;;;;;;;9.13;6.97;;;16.30;99.90;;;;;;10303002;28;20739;-82
2022/04/15 11:53:34;;;;;;;7.17;6.47;;;16.90;99.90;;;;;;10311471;28;20240;-81
2022/04/15 11:58:38;;;;;;;7.20;6.27;;;17.30;99.90;;;;;;10329936;28;20237;-81
2022/04/15 12:03:43;;;;;;;6.13;5.53;;;17.30;99.90;;;;;;10310621;28;20331;-82
2022/04/15 12:08:47;;;;;;;8.60;6.33;;;16.70;99.90;;;;;;10310611;28;20619;-82
2022/04/15 12:14:00;;;;;;;5.77;5.10;;;16.60;99.90;;;;;;10326648;28;20237;-82
2022/04/15 12:19:04;;;;;;;5.40;4.90;;;16.40;99.90;;;;;;10295020;28;20253;-81
2022/04/15 12:24:31;;;;;;;9.03;7.03;;;17.20;99.90;;;;;;10288354;28;20726;-82
2022/04/15 12:29:51;;;;;;;6.40;5.77;;;17.20;99.90;;;;;;10292038;28;20236;-82
2022/04/15 12:34:54;;;;;;;7.87;6.63;;;16.10;99.90;;;;;;10299973;28;20283;-81
2022/04/15 12:39:57;;;;;;;9.73;7.07;;;15.90;99.90;;;;;;10285990;28;20308;-82
2022/04/15 12:45:01;;;;;;;5.60;5.10;;;14.80;99.90;;;;;;10275317;28;20264;-81
2022/04/15 12:50:24;;;;;;;6.80;6.03;;;15.60;99.90;;;;;;10287263;28;20265;-82
2022/04/15 12:55:31;;;;;;;10.97;8.97;;;11.20;99.90;;;;;;10270860;28;20244;-81
2022/04/15 13:00:33;;;;;;;12.37;9.37;;;11.20;99.90;;;;;;10286489;28;20234;-81
2022/04/15 13:05:36;;;;;;;11.23;8.70;;;12.50;99.90;;;;;;10270228;28;20750;-81
2022/04/15 13:10:39;;;;;;;11.67;9.17;;;12.80;99.90;;;;;;10270633;28;20304;-82
2022/04/15 13:16:02;;;;;;;11.67;8.57;;;12.00;99.90;;;;;;10273198;28;20237;-81
2022/04/15 13:21:04;;;;;;;13.27;10.07;;;11.60;99.90;;;;;;10287333;28;20240;-81
2022/04/15 13:26:08;;;;;;;8.20;6.93;;;10.50;99.90;;;;;;10269974;28;20793;-81
2022/04/15 13:31:11;;;;;;;25.07;16.50;;;11.70;99.90;;;;;;10282626;28;20236;-81
2022/04/15 13:36:13;;;;;;;16.50;11.60;;;11.40;99.90;;;;;;10287968;28;20320;-80
2022/04/15 13:41:16;;;;;;;13.87;9.53;;;11.80;99.90;;;;;;10285015;28;20644;-80
2022/04/15 13:46:19;;;;;;;14.97;10.37;;;12.00;99.90;;;;;;10302228;28;20788;-91
2022/04/15 13:51:22;;;;;;;16.00;10.70;;;12.40;99.90;;;;;;10269227;28;20263;-92
2022/04/15 13:56:34;;;;;;;15.87;10.20;;;12.80;99.90;;;;;;10284875;28;20646;-92
2022/04/15 14:01:39;;;;;;;14.23;9.20;;;13.60;99.90;;;;;;10291372;28;20249;-91
2022/04/15 14:06:50;;;;;;;11.63;9.47;;;11.00;99.90;;;;;;10294343;28;20252;-92
2022/04/15 14:11:52;;;;;;;12.73;9.20;;;10.90;99.90;;;;;;10294638;28;20616;-92
2022/04/15 14:16:55;;;;;;;12.50;9.27;;;10.50;99.90;;;;;;10277595;28;20249;-92
2022/04/15 14:21:57;;;;;;;12.17;8.63;;;11.80;99.90;;;;;;10295644;28;20269;-91
2022/04/15 14:27:00;;;;;;;15.63;9.30;;;12.30;99.90;;;;;;10277088;28;20265;-91
2022/04/15 14:32:03;;;;;;;10.13;7.83;;;12.90;99.90;;;;;;10293419;28;20201;-91
2022/04/15 14:37:06;;;;;;;12.00;9.57;;;12.40;99.90;;;;;;10276261;28;20253;-91
2022/04/15 14:42:09;;;;;;;17.67;11.17;;;11.40;99.90;;;;;;10293062;28;20518;-92
2022/04/15 14:47:12;;;;;;;14.50;9.30;;;12.50;99.90;;;;;;10317047;28;20292;-92
2022/04/15 14:52:15;;;;;;;14.20;9.10;;;11.70;99.90;;;;;;10317122;28;20264;-92
2022/04/15 14:57:18;;;;;;;18.40;10.17;;;10.80;99.90;;;;;;10320242;28;20214;-93
2022/04/15 15:02:21;;;;;;;15.10;11.07;;;10.30;99.90;;;;;;10253864;28;20284;-93
2022/04/15 15:07:24;;;;;;;9.70;7.73;;;12.10;99.90;;;;;;10277184;28;20229;-94
2022/04/15 15:12:29;;;;;;;7.43;6.67;;;12.70;99.90;;;;;;10294357;28;20625;-90
2022/04/15 15:17:31;;;;;;;12.67;8.57;;;14.30;99.90;;;;;;10297239;28;20663;-84
2022/04/15 15:22:34;;;;;;;11.83;7.77;;;13.60;99.90;;;;;;10312361;28;20303;-84
2022/04/15 15:32:58;;;;;;;12.57;7.40;;;14.80;99.90;;;;;;10290643;28;20670;-84
2022/04/15 15:38:01;;;;;;;7.17;6.03;;;13.00;99.90;;;;;;10312190;28;20242;-84
2022/04/15 15:43:05;;;;;;;10.60;6.53;;;15.50;99.90;;;;;;10328805;28;20267;-84
2022/04/15 15:48:09;;;;;;;6.53;5.67;;;16.50;99.90;;;;;;10329668;28;20294;-84
2022/04/15 15:53:13;;;;;;;7.67;6.43;;;16.70;99.90;;;;;;10328324;28;20246;-84
2022/04/15 15:58:16;;;;;;;7.03;5.73;;;15.90;99.90;;;;;;10291733;28;20296;-84
2022/04/15 16:03:18;;;;;;;9.77;7.73;;;14.80;99.90;;;;;;10302711;28;20253;-84
2022/04/15 16:08:21;;;;;;;8.87;6.40;;;11.50;99.90;;;;;;10292708;28;20319;-84
2022/04/15 16:13:23;;;;;;;8.30;7.40;;;11.50;99.90;;;;;;10289639;28;20285;-84
2022/04/15 16:18:26;;;;;;;14.93;9.40;;;10.50;99.90;;;;;;10271773;28;20221;-87
2022/04/15 16:23:29;;;;;;;15.77;9.90;;;11.50;99.90;;;;;;10257309;28;20214;-85
2022/04/15 16:28:33;;;;;;;19.40;13.03;;;9.80;99.90;;;;;;10303026;28;20771;-85
2022/04/15 16:33:36;;;;;;;26.97;16.80;;;10.40;99.90;;;;;;10327916;28;20240;-85
2022/04/15 16:38:38;;;;;;;22.40;13.93;;;9.40;99.90;;;;;;9636230;28;10000786;-85
2022/04/15 16:43:42;;;;;;;17.53;12.33;;;9.70;99.90;;;;;;10285082;28;20253;-85
2022/04/15 16:48:44;;;;;;;16.70;10.47;;;8.50;99.90;;;;;;10266553;28;20333;-85
2022/04/15 16:53:47;;;;;;;14.67;10.60;;;8.70;99.90;;;;;;10282229;28;20241;-85
2022/04/15 16:58:51;;;;;;;14.33;9.83;;;8.10;99.90;;;;;;10292988;28;20250;-85
2022/04/15 17:03:55;;;;;;;16.70;11.77;;;8.60;99.90;;;;;;10323597;28;20307;-85
2022/04/15 17:08:58;;;;;;;13.30;10.83;;;9.00;99.90;;;;;;10277558;28;20709;-85
2022/04/15 17:14:01;;;;;;;11.87;9.50;;;7.40;99.90;;;;;;10278320;28;20240;-86
2022/04/15 17:19:03;;;;;;;13.77;10.20;;;7.40;99.90;;;;;;10286713;28;20304;-85
2022/04/15 17:24:06;;;;;;;15.80;9.33;;;8.10;99.90;;;;;;10267895;28;20813;-86
2022/04/15 17:29:09;;;;;;;15.17;10.10;;;7.80;99.90;;;;;;10294533;28;20265;-84
2022/04/15 17:34:14;;;;;;;14.20;10.53;;;;;;;;;;10304329;28;20697;-84
2022/04/15 17:39:16;;;;;;;13.57;11.03;;;7.20;99.90;;;;;;10295964;28;20303;-85
2022/04/15 17:44:19;;;;;;;17.90;13.17;;;7.50;99.90;;;;;;10300629;28;20249;-85
2022/04/15 17:49:21;;;;;;;15.87;10.83;;;7.60;99.90;;;;;;10278342;28;20311;-85
2022/04/15 17:54:24;;;;;;;12.47;9.43;;;7.80;99.90;;;;;;10273912;28;20245;-85
2022/04/15 17:59:26;;;;;;;20.83;13.37;;;8.20;99.90;;;;;;10303704;28;20250;-85
2022/04/15 18:04:29;;;;;;;23.73;14.17;;;7.70;99.90;;;;;;10309135;28;20883;-85
2022/04/15 18:09:31;;;;;;;18.57;13.40;;;7.50;99.90;;;;;;10318420;28;20236;-85
2022/04/15 18:14:37;;;;;;;20.87;13.40;;;7.20;99.90;;;;;;10310262;28;20232;-84
2022/04/15 18:19:40;;;;;;;19.07;12.77;;;7.10;99.90;;;;;;10292029;28;20216;-85
2022/04/15 18:24:45;;;;;;;20.30;12.43;;;7.30;99.90;;;;;;10305223;28;20608;-85
2022/04/15 18:29:48;;;;;;;22.70;14.13;;;7.30;99.90;;;;;;10321339;28;20264;-85
2022/04/15 18:34:51;;;;;;;20.73;12.90;;;7.30;99.90;;;;;;10331887;28;20291;-86
2022/04/15 18:39:53;;;;;;;22.00;12.93;;;6.70;99.90;;;;;;10284197;28;20257;-86
2022/04/15 18:44:56;;;;;;;19.53;11.93;;;7.10;99.90;;;;;;10329930;28;20322;-85
2022/04/15 18:55:21;;;;;;;16.43;11.53;;;6.80;99.90;;;;;;10308950;28;20252;-85
2022/04/15 19:00:24;;;;;;;18.03;11.53;;;7.40;99.90;;;;;;10315089;28;20245;-85
2022/04/15 19:05:27;;;;;;;17.63;11.00;;;8.00;99.90;;;;;;10286755;28;20327;-85
2022/04/15 19:10:30;;;;;;;21.00;11.40;;;7.20;99.90;;;;;;10289150;28;20237;-85
2022/04/15 19:15:34;;;;;;;23.23;14.03;;;6.90;99.90;;;;;;10325803;28;20298;-85
2022/04/15 19:20:37;;;;;;;18.93;12.90;;;7.20;99.90;;;;;;10309102;28;20715;-85
2022/04/15 19:25:40;;;;;;;21.03;12.37;;;6.30;99.90;;;;;;10311946;28;20721;-86
2022/04/15 19:30:43;;;;;;;17.03;10.50;;;6.70;99.90;;;;;;10294297;28;20245;-88
2022/04/15 19:35:46;;;;;;;17.57;10.83;;;7.00;99.90;;;;;;10304597;28;20249;-86
2022/04/15 19:40:49;;;;;;;12.90;10.00;;;7.70;99.90;;;;;;10285340;28;20629;-86
2022/04/15 19:45:52;;;;;;;16.33;11.03;;;7.10;99.90;;;;;;10298404;28;20288;-85
2022/04/15 19:50:54;;;;;;;16.93;10.57;;;7.00;99.90;;;;;;10274323;28;20269;-86
2022/04/15 20:01:39;;;;;;;16.90;10.47;;;7.30;99.90;;;;;;10311150;28;20287;-85
2022/04/15 20:06:45;;;;;;;16.20;10.67;;;8.30;99.90;;;;;;9939060;28;9999841;-86
2022/04/15 20:11:48;;;;;;;14.00;9.37;;;7.50;99.90;;;;;;10292217;28;20985;-85
2022/04/15 20:16:50;;;;;;;14.47;9.37;;;6.70;99.90;;;;;;10286504;28;20284;-85
2022/04/15 20:21:53;;;;;;;14.40;8.97;;;6.80;99.90;;;;;;10282888;28;20248;-85
2022/04/15 20:26:56;;;;;;;14.13;8.07;;;6.50;99.90;;;;;;10271778;28;20269;-85
2022/04/15 20:31:58;;;;;;;14.07;8.30;;;6.60;99.90;;;;;;10271622;28;20283;-85
2022/04/15 20:37:01;;;;;;;14.27;7.97;;;7.20;99.90;;;;;;10305794;28;20720;-84
2022/04/15 20:42:05;;;;;;;10.73;7.20;;;6.50;99.90;;;;;;10285050;28;20292;-85
2022/04/15 20:47:08;;;;;;;13.20;7.40;;;6.70;99.90;;;;;;10290752;28;20698;-84
2022/04/15 20:52:11;;;;;;;13.97;6.43;;;6.20;99.90;;;;;;10292623;28;20306;-84
2022/04/15 20:57:14;;;;;;;7.37;5.50;;;6.30;99.90;;;;;;10325175;28;20249;-85
2022/04/15 21:02:17;;;;;;;10.63;4.40;;;7.00;99.90;;;;;;10314197;28;20245;-85
2022/04/15 21:07:20;;;;;;;7.33;4.67;;;6.00;99.90;;;;;;10290384;28;20283;-85
2022/04/15 21:12:22;;;;;;;5.83;3.57;;;5.90;99.90;;;;;;10311736;28;20287;-84
2022/04/15 21:17:25;;;;;;;7.80;4.17;;;5.50;99.90;;;;;;10307858;28;20989;-85
2022/04/15 21:22:27;;;;;;;5.10;3.73;;;5.70;99.90;;;;;;10304564;28;20304;-84
2022/04/15 21:27:30;;;;;;;5.80;4.03;;;5.80;99.90;;;;;;10275111;28;20260;-84
2022/04/15 21:32:33;;;;;;;5.60;3.90;;;6.30;99.90;;;;;;10286845;28;20264;-84
2022/04/15 21:37:36;;;;;;;5.53;3.33;;;5.80;99.90;;;;;;10278067;28;20689;-84
2022/04/15 21:42:40;;;;;;;8.00;3.77;;;5.80;99.90;;;;;;10287218;28;20249;-84
2022/04/15 21:47:46;;;;;;;4.77;3.90;;;5.30;99.90;;;;;;10270289;28;20683;-84
2022/04/15 21:52:48;;;;;;;5.73;3.27;;;5.30;99.90;;;;;;10323925;28;20232;-85
2022/04/15 21:57:51;;;;;;;7.60;2.83;;;5.10;99.90;;;;;;10296927;28;20804;-84
2022/04/15 22:02:53;;;;;;;8.63;4.30;;;4.90;99.90;;;;;;10286757;28;20272;-84
2022/04/15 22:07:56;;;;;;;6.37;3.17;;;6.00;99.90;;;;;;10289930;28;20253;-85
2022/04/15 22:12:59;;;;;;;4.57;3.23;;;5.90;99.90;;;;;;10298378;28;20292;-85
2022/04/15 22:18:03;;;;;;;6.53;4.67;;;5.80;99.90;;;;;;10302881;28;20308;-84
2022/04/15 22:23:09;;;;;;;4.40;2.70;;;5.90;99.90;;;;;;10294212;28;20276;-85
2022/04/15 22:28:11;;;;;;;3.67;2.10;;;5.10;99.90;;;;;;10293018;28;20252;-85
2022/04/15 22:33:16;;;;;;;4.07;3.17;;;5.00;99.90;;;;;;10260189;28;20268;-85
2022/04/15 22:38:20;;;;;;;5.53;3.93;;;5.20;99.90;;;;;;10299797;28;20887;-85
2022/04/15 22:43:25;;;;;;;5.63;3.03;;;4.90;99.90;;;;;;10306700;28;20233;-85
2022/04/15 22:48:29;;;;;;;3.80;2.83;;;4.80;99.90;;;;;;10302251;28;20264;-85
2022/04/15 22:53:32;;;;;;;2.87;2.27;;;4.60;99.90;;;;;;10305224;28;20233;-85
2022/04/15 22:58:35;;;;;;;6.87;3.10;;;5.20;99.90;;;;;;10292058;28;20292;-85
2022/04/15 23:03:38;;;;;;;5.93;2.13;;;6.00;99.90;;;;;;10291173;28;20245;-85
2022/04/15 23:08:45;;;;;;;4.97;3.13;;;4.70;99.90;;;;;;10275814;28;20261;-85
2022/04/15 23:13:50;;;;;;;6.20;3.73;;;;;;;;;;10279358;28;20654;-85
2022/04/15 23:18:54;;;;;;;6.13;3.37;;;7.00;99.90;;;;;;10285010;28;20305;-85
2022/04/15 23:23:58;;;;;;;4.03;2.50;;;5.80;99.90;;;;;;10286126;28;20821;-84
2022/04/15 23:29:02;;;;;;;3.27;1.73;;;5.20;99.90;;;;;;10282746;28;20352;-85
2022/04/15 23:34:05;;;;;;;4.77;3.03;;;5.30;99.90;;;;;;10283163;28;20292;-85
2022/04/15 23:39:07;;;;;;;5.10;4.03;;;6.20;99.90;;;;;;10281757;28;20325;-85
2022/04/15 23:44:10;;;;;;;4.63;3.07;;;7.20;99.90;;;;;;10282931;28;20417;-84
2022/04/15 23:49:12;;;;;;;3.90;1.93;;;5.90;99.90;;;;;;10253105;28;20324;-85
2022/04/15 23:54:19;;;;;;;7.27;3.23;;;5.10;99.90;;;;;;10271974;28;22314;-84
2022/04/15 23:59:22;;;;;;;5.50;3.07;;;5.40;99.90;;;;;;10266478;28;20322;-85
